Sea Success — VRS4325 — position and weather

sailwx.info

Track history (hours):
 
Tides and Currents Weather Stations Pressure Air Temp Water Temp Dewpoint Dewpoint Depression Visibility Wind Speed Wind Dir Waves Ship Positions

Sea Success

Last reported at 2015-Aug-02 13:33 UTC. Time now 2015-Aug-02 18:22 UTC.
Position N 22°17' E 114°08'.

Length 27 m.

Type: High speed craft. MMSI: 477995071.

Date/timePositionNaut miles runAvg speedWind from/ knotsBaromVisibWave heightAir tempDewpointWater temp
2015-Aug-02 13:33N 22°17' E 114°08'2 1.6
2015-Aug-02 12:33N 22°18' E 114°06'4 3.5
2015-Aug-02 11:23N 22°16' E 114°02'7 8.8
2015-Aug-02 10:33N 22°17' E 114°10'7 5.9
2015-Aug-02 09:23N 22°17' E 114°02'6 7.5
2015-Aug-02 08:33N 22°18' E 114°09'2 2.4
2015-Aug-02 07:33N 22°18' E 114°06'5 4.2
2015-Aug-02 06:27N 22°16' E 114°02'7 8.4
2015-Aug-02 05:33N 22°17' E 114°10'2 2.3
2015-Aug-02 04:30N 22°17' E 114°07'2 2.5
2015-Aug-02 03:33N 22°17' E 114°09'7 4.6
2015-Aug-02 02:06N 22°17' E 114°02'712.7
2015-Aug-02 01:33N 22°17' E 114°10'0 0.2
2015-Aug-02 00:33N 22°17' E 114°09'2 2.3
2015-Aug-01 23:33N 22°20' E 114°09'5 0.5
2015-Aug-01 13:33N 22°17' E 114°04'3 2.0
2015-Aug-01 12:07N 22°16' E 114°02'813.6
2015-Aug-01 11:33N 22°17' E 114°10'7 6.1
2015-Aug-01 10:25N 22°17' E 114°02'3 1.9
2015-Aug-01 09:03N 22°17' E 114°05'4 8.8
2015-Aug-01 08:33N 22°17' E 114°10'7 3.3
2015-Aug-01 06:22N 22°17' E 114°02'7 8.8
2015-Aug-01 05:33N 22°17' E 114°10'4 1.6
2015-Aug-01 03:04N 22°17' E 114°05'4 7.8
2015-Aug-01 02:32N 22°17' E 114°10'8 6.5
2015-Aug-01 01:22N 22°16' E 114°02'2 1.8
2015-Aug-01 00:29N 22°17' E 114°03'6 6.7
2015-Jul-31 23:33N 22°17' E 114°10'4 3.8
2015-Jul-31 22:25N 22°17' E 114°05'0 0.0
2015-Jul-31 13:33N 22°17' E 114°05'4 2.6
2015-Jul-31 12:07N 22°16' E 114°02'813.6
2015-Jul-31 11:33N 22°17' E 114°10'7 5.9
2015-Jul-31 10:24N 22°17' E 114°02'7 7.7
2015-Jul-31 09:33N 22°18' E 114°09'0 0.5
2015-Jul-31 08:33N 22°18' E 114°09'7 3.2
2015-Jul-31 06:18N 22°16' E 114°02'7 9.7
2015-Jul-31 05:33N 22°17' E 114°10'8 3.4
2015-Jul-31 03:20N 22°16' E 114°02'8 9.6
2015-Jul-31 02:33N 22°17' E 114°10'5 3.6
2015-Jul-31 01:15N 22°17' E 114°05'5 2.8
2015-Jul-30 23:34N 22°17' E 114°10'4 3.9
2015-Jul-30 22:24N 22°17' E 114°05'0 0.0
2015-Jul-30 13:33N 22°17' E 114°05'3 2.2
2015-Jul-30 12:07N 22°16' E 114°02'713.0
2015-Jul-30 11:33N 22°17' E 114°10'7 6.0
2015-Jul-30 10:25N 22°17' E 114°02'7 7.6
2015-Jul-30 09:33N 22°18' E 114°09'1 1.1
2015-Jul-30 08:33N 22°17' E 114°09'7 3.1
2015-Jul-30 06:18N 22°17' E 114°02'7 9.5
2015-Jul-30 05:33N 22°17' E 114°10'2 2.4
2015-Jul-30 04:33N 22°17' E 114°07'2 2.4
2015-Jul-30 03:33N 22°17' E 114°10'7 6.3
2015-Jul-30 02:28N 22°17' E 114°02'3 3.4
2015-Jul-30 01:32N 22°17' E 114°06'4 3.7
2015-Jul-30 00:33N 22°17' E 114°09'5 4.1
2015-Jul-29 23:23N 22°17' E 114°04'1 1.3
2015-Jul-29 22:33N 22°17' E 114°05'4 0.6
2015-Jul-29 15:34N 22°17' E 114°10'0 0.0
2015-Jul-29 14:28N 22°17' E 114°10'0 0.0
2015-Jul-29 13:32N 22°17' E 114°10'7 5.0
2015-Jul-29 12:06N 22°16' E 114°02'713.0
2015-Jul-29 11:33N 22°17' E 114°10'7 6.1
2015-Jul-29 10:26N 22°17' E 114°02'7 7.7
2015-Jul-29 09:33N 22°19' E 114°09'2 1.6
2015-Jul-29 08:33N 22°17' E 114°10'0 0.0
2015-Jul-29 05:32N 22°17' E 114°10'7 3.2
2015-Jul-29 03:18N 22°17' E 114°02'7 9.5
2015-Jul-29 02:33N 22°17' E 114°10'3 2.2
2015-Jul-29 01:08N 22°17' E 114°06'3 2.0
2015-Jul-28 23:34N 22°17' E 114°10'5 4.0
2015-Jul-28 22:26N 22°17' E 114°05'2 0.3
2015-Jul-28 13:26N 22°17' E 114°07'5 3.6
2015-Jul-28 12:06N 22°17' E 114°02'712.4
2015-Jul-28 11:33N 22°17' E 114°10'7 6.0
2015-Jul-28 10:24N 22°17' E 114°02'6 7.5
2015-Jul-28 09:33N 22°18' E 114°09'1 1.1
2015-Jul-28 08:33N 22°17' E 114°10'8 3.4
2015-Jul-28 06:21N 22°16' E 114°02'8 9.5
2015-Jul-28 05:33N 22°17' E 114°10'7 3.4
2015-Jul-28 03:20N 22°16' E 114°02'7 9.7
2015-Jul-28 02:34N 22°17' E 114°10'4 2.8
2015-Jul-28 01:12N 22°17' E 114°05'1 2.1
2015-Jul-28 00:33N 22°17' E 114°04'5 5.1
2015-Jul-27 23:34N 22°17' E 114°10'1 1.0
2015-Jul-27 22:33N 22°18' E 114°09'3 0.3
2015-Jul-27 13:31N 22°17' E 114°05'4 2.9
2015-Jul-27 12:10N 22°16' E 114°02'812.4
2015-Jul-27 11:33N 22°17' E 114°10'7 6.0
2015-Jul-27 10:24N 22°17' E 114°02'6 7.7
2015-Jul-27 09:33N 22°18' E 114°09'0 0.2
2015-Jul-27 08:33N 22°18' E 114°09'7 3.2
2015-Jul-27 06:19N 22°16' E 114°02'7 9.4
2015-Jul-27 05:33N 22°17' E 114°10'7 3.2
2015-Jul-27 03:17N 22°16' E 114°02'7 9.8
2015-Jul-27 02:33N 22°17' E 114°10'7 6.0
2015-Jul-27 01:20N 22°16' E 114°02'1 1.4
2015-Jul-27 00:29N 22°16' E 114°03'6 6.7
2015-Jul-26 23:34N 22°17' E 114°10'5 4.9
2015-Jul-26 22:32N 22°17' E 114°04'2 0.2
2015-Jul-26 14:04N 22°17' E 114°02'510.7
2015-Jul-26 13:33N 22°18' E 114°08'1 1.2
2015-Jul-26 12:33N 22°17' E 114°07'4 3.6
2015-Jul-26 11:24N 22°17' E 114°02'7 8.2
2015-Jul-26 10:33N 22°17' E 114°10'7 6.0
2015-Jul-26 09:24N 22°17' E 114°02'7 8.0
2015-Jul-26 08:33N 22°17' E 114°09'0 0.0
2015-Jul-26 07:33N 22°17' E 114°09'0 0.0
2015-Jul-26 06:33N 22°17' E 114°09'0 0.0
2015-Jul-26 05:33N 22°17' E 114°09'7 5.9
2015-Jul-26 04:26N 22°17' E 114°02'7 7.5
2015-Jul-26 03:33N 22°17' E 114°09'3 2.8
2015-Jul-26 02:33N 22°17' E 114°06'3 3.0
2015-Jul-26 01:33N 22°18' E 114°09'0 0.0
2015-Jul-26 00:33N 22°18' E 114°09'1 1.4
2015-Jul-25 23:33N 22°20' E 114°09'5 0.5
2015-Jul-25 13:33N 22°17' E 114°04'3 1.8
2015-Jul-25 12:06N 22°16' E 114°02'713.8
2015-Jul-25 11:33N 22°17' E 114°10'7 7.0
2015-Jul-25 10:33N 22°17' E 114°02'0 0.1
2015-Jul-25 09:10N 22°17' E 114°02'711.3
2015-Jul-25 08:33N 22°17' E 114°10'8 3.5
2015-Jul-25 06:24N 22°16' E 114°02'8 9.0
2015-Jul-25 05:33N 22°17' E 114°10'7 3.1
2015-Jul-25 03:18N 22°17' E 114°02'7 9.4
2015-Jul-25 02:33N 22°17' E 114°10'8 6.3
2015-Jul-25 01:21N 22°16' E 114°02'1 1.0
2015-Jul-25 00:09N 22°17' E 114°02'711.7
2015-Jul-24 23:33N 22°17' E 114°10'5 5.0
2015-Jul-24 22:32N 22°17' E 114°04'2 0.2
2015-Jul-24 13:31N 22°17' E 114°06'4 3.0
2015-Jul-24 12:09N 22°16' E 114°02'812.9
2015-Jul-24 11:33N 22°17' E 114°10'3 2.3
2015-Jul-24 10:15N 22°17' E 114°06'3 3.9
2015-Jul-24 09:33N 22°18' E 114°09'2 1.7
2015-Jul-24 08:33N 22°20' E 114°09'3 2.9
2015-Jul-24 07:29N 22°17' E 114°06'3 2.9
2015-Jul-24 06:33N 22°17' E 114°09'0 0.0
2015-Jul-24 05:33N 22°17' E 114°09'0 0.0
2015-Jul-24 04:33N 22°17' E 114°09'0 0.0
2015-Jul-24 03:33N 22°17' E 114°09'0 0.0
2015-Jul-24 02:33N 22°17' E 114°09'7 6.4
2015-Jul-24 01:25N 22°16' E 114°02'7 4.0
2015-Jul-23 23:33N 22°17' E 114°10'5 5.1
2015-Jul-23 22:32N 22°18' E 114°04'  
Track history (hours):
 
Tides and Currents Weather Stations Pressure Air Temp Water Temp Dewpoint Dewpoint Depression Visibility Wind Speed Wind Dir Waves Ship Positions

Sea Success

Last reported at 2015-Aug-02 13:33 UTC. Time now 2015-Aug-02 18:22 UTC.
Position N 22°17' E 114°08'.

Length 27 m.

Type: High speed craft. MMSI: 477995071.

Date/timePositionNaut miles runAvg speedWind from/ knotsBaromVisibWave heightAir tempDewpointWater temp
2015-Aug-02 13:33N 22°17' E 114°08'2 1.6
2015-Aug-02 12:33N 22°18' E 114°06'4 3.5
2015-Aug-02 11:23N 22°16' E 114°02'7 8.8
2015-Aug-02 10:33N 22°17' E 114°10'7 5.9
2015-Aug-02 09:23N 22°17' E 114°02'6 7.5
2015-Aug-02 08:33N 22°18' E 114°09'2 2.4
2015-Aug-02 07:33N 22°18' E 114°06'5 4.2
2015-Aug-02 06:27N 22°16' E 114°02'7 8.4
2015-Aug-02 05:33N 22°17' E 114°10'2 2.3
2015-Aug-02 04:30N 22°17' E 114°07'2 2.5
2015-Aug-02 03:33N 22°17' E 114°09'7 4.6
2015-Aug-02 02:06N 22°17' E 114°02'712.7
2015-Aug-02 01:33N 22°17' E 114°10'0 0.2
2015-Aug-02 00:33N 22°17' E 114°09'2 2.3
2015-Aug-01 23:33N 22°20' E 114°09'5 0.5
2015-Aug-01 13:33N 22°17' E 114°04'3 2.0
2015-Aug-01 12:07N 22°16' E 114°02'813.6
2015-Aug-01 11:33N 22°17' E 114°10'7 6.1
2015-Aug-01 10:25N 22°17' E 114°02'3 1.9
2015-Aug-01 09:03N 22°17' E 114°05'4 8.8
2015-Aug-01 08:33N 22°17' E 114°10'7 3.3
2015-Aug-01 06:22N 22°17' E 114°02'7 8.8
2015-Aug-01 05:33N 22°17' E 114°10'4 1.6
2015-Aug-01 03:04N 22°17' E 114°05'4 7.8
2015-Aug-01 02:32N 22°17' E 114°10'8 6.5
2015-Aug-01 01:22N 22°16' E 114°02'2 1.8
2015-Aug-01 00:29N 22°17' E 114°03'6 6.7
2015-Jul-31 23:33N 22°17' E 114°10'4 3.8
2015-Jul-31 22:25N 22°17' E 114°05'0 0.0
2015-Jul-31 13:33N 22°17' E 114°05'4 2.6
2015-Jul-31 12:07N 22°16' E 114°02'813.6
2015-Jul-31 11:33N 22°17' E 114°10'7 5.9
2015-Jul-31 10:24N 22°17' E 114°02'7 7.7
2015-Jul-31 09:33N 22°18' E 114°09'0 0.5
2015-Jul-31 08:33N 22°18' E 114°09'7 3.2
2015-Jul-31 06:18N 22°16' E 114°02'7 9.7
2015-Jul-31 05:33N 22°17' E 114°10'8 3.4
2015-Jul-31 03:20N 22°16' E 114°02'8 9.6
2015-Jul-31 02:33N 22°17' E 114°10'5 3.6
2015-Jul-31 01:15N 22°17' E 114°05'5 2.8
2015-Jul-30 23:34N 22°17' E 114°10'4 3.9
2015-Jul-30 22:24N 22°17' E 114°05'0 0.0
2015-Jul-30 13:33N 22°17' E 114°05'3 2.2
2015-Jul-30 12:07N 22°16' E 114°02'713.0
2015-Jul-30 11:33N 22°17' E 114°10'7 6.0
2015-Jul-30 10:25N 22°17' E 114°02'7 7.6
2015-Jul-30 09:33N 22°18' E 114°09'1 1.1
2015-Jul-30 08:33N 22°17' E 114°09'7 3.1
2015-Jul-30 06:18N 22°17' E 114°02'7 9.5
2015-Jul-30 05:33N 22°17' E 114°10'2 2.4
2015-Jul-30 04:33N 22°17' E 114°07'2 2.4
2015-Jul-30 03:33N 22°17' E 114°10'7 6.3
2015-Jul-30 02:28N 22°17' E 114°02'3 3.4
2015-Jul-30 01:32N 22°17' E 114°06'4 3.7
2015-Jul-30 00:33N 22°17' E 114°09'5 4.1
2015-Jul-29 23:23N 22°17' E 114°04'1 1.3
2015-Jul-29 22:33N 22°17' E 114°05'4 0.6
2015-Jul-29 15:34N 22°17' E 114°10'0 0.0
2015-Jul-29 14:28N 22°17' E 114°10'0 0.0
2015-Jul-29 13:32N 22°17' E 114°10'7 5.0
2015-Jul-29 12:06N 22°16' E 114°02'713.0
2015-Jul-29 11:33N 22°17' E 114°10'7 6.1
2015-Jul-29 10:26N 22°17' E 114°02'7 7.7
2015-Jul-29 09:33N 22°19' E 114°09'2 1.6
2015-Jul-29 08:33N 22°17' E 114°10'0 0.0
2015-Jul-29 05:32N 22°17' E 114°10'7 3.2
2015-Jul-29 03:18N 22°17' E 114°02'7 9.5
2015-Jul-29 02:33N 22°17' E 114°10'3 2.2
2015-Jul-29 01:08N 22°17' E 114°06'3 2.0
2015-Jul-28 23:34N 22°17' E 114°10'5 4.0
2015-Jul-28 22:26N 22°17' E 114°05'2 0.3
2015-Jul-28 13:26N 22°17' E 114°07'5 3.6
2015-Jul-28 12:06N 22°17' E 114°02'712.4
2015-Jul-28 11:33N 22°17' E 114°10'7 6.0
2015-Jul-28 10:24N 22°17' E 114°02'6 7.5
2015-Jul-28 09:33N 22°18' E 114°09'1 1.1
2015-Jul-28 08:33N 22°17' E 114°10'8 3.4
2015-Jul-28 06:21N 22°16' E 114°02'8 9.5
2015-Jul-28 05:33N 22°17' E 114°10'7 3.4
2015-Jul-28 03:20N 22°16' E 114°02'7 9.7
2015-Jul-28 02:34N 22°17' E 114°10'4 2.8
2015-Jul-28 01:12N 22°17' E 114°05'1 2.1
2015-Jul-28 00:33N 22°17' E 114°04'5 5.1
2015-Jul-27 23:34N 22°17' E 114°10'1 1.0
2015-Jul-27 22:33N 22°18' E 114°09'3 0.3
2015-Jul-27 13:31N 22°17' E 114°05'4 2.9
2015-Jul-27 12:10N 22°16' E 114°02'812.4
2015-Jul-27 11:33N 22°17' E 114°10'7 6.0
2015-Jul-27 10:24N 22°17' E 114°02'6 7.7
2015-Jul-27 09:33N 22°18' E 114°09'0 0.2
2015-Jul-27 08:33N 22°18' E 114°09'7 3.2
2015-Jul-27 06:19N 22°16' E 114°02'7 9.4
2015-Jul-27 05:33N 22°17' E 114°10'7 3.2
2015-Jul-27 03:17N 22°16' E 114°02'7 9.8
2015-Jul-27 02:33N 22°17' E 114°10'7 6.0
2015-Jul-27 01:20N 22°16' E 114°02'1 1.4
2015-Jul-27 00:29N 22°16' E 114°03'6 6.7
2015-Jul-26 23:34N 22°17' E 114°10'5 4.9
2015-Jul-26 22:32N 22°17' E 114°04'2 0.2
2015-Jul-26 14:04N 22°17' E 114°02'510.7
2015-Jul-26 13:33N 22°18' E 114°08'1 1.2
2015-Jul-26 12:33N 22°17' E 114°07'4 3.6
2015-Jul-26 11:24N 22°17' E 114°02'7 8.2
2015-Jul-26 10:33N 22°17' E 114°10'7 6.0
2015-Jul-26 09:24N 22°17' E 114°02'7 8.0
2015-Jul-26 08:33N 22°17' E 114°09'0 0.0
2015-Jul-26 07:33N 22°17' E 114°09'0 0.0
2015-Jul-26 06:33N 22°17' E 114°09'0 0.0
2015-Jul-26 05:33N 22°17' E 114°09'7 5.9
2015-Jul-26 04:26N 22°17' E 114°02'7 7.5
2015-Jul-26 03:33N 22°17' E 114°09'3 2.8
2015-Jul-26 02:33N 22°17' E 114°06'3 3.0
2015-Jul-26 01:33N 22°18' E 114°09'0 0.0
2015-Jul-26 00:33N 22°18' E 114°09'1 1.4
2015-Jul-25 23:33N 22°20' E 114°09'5 0.5
2015-Jul-25 13:33N 22°17' E 114°04'3 1.8
2015-Jul-25 12:06N 22°16' E 114°02'713.8
2015-Jul-25 11:33N 22°17' E 114°10'7 7.0
2015-Jul-25 10:33N 22°17' E 114°02'0 0.1
2015-Jul-25 09:10N 22°17' E 114°02'711.3
2015-Jul-25 08:33N 22°17' E 114°10'8 3.5
2015-Jul-25 06:24N 22°16' E 114°02'8 9.0
2015-Jul-25 05:33N 22°17' E 114°10'7 3.1
2015-Jul-25 03:18N 22°17' E 114°02'7 9.4
2015-Jul-25 02:33N 22°17' E 114°10'8 6.3
2015-Jul-25 01:21N 22°16' E 114°02'1 1.0
2015-Jul-25 00:09N 22°17' E 114°02'711.7
2015-Jul-24 23:33N 22°17' E 114°10'5 5.0
2015-Jul-24 22:32N 22°17' E 114°04'2 0.2
2015-Jul-24 13:31N 22°17' E 114°06'4 3.0
2015-Jul-24 12:09N 22°16' E 114°02'812.9
2015-Jul-24 11:33N 22°17' E 114°10'3 2.3
2015-Jul-24 10:15N 22°17' E 114°06'3 3.9
2015-Jul-24 09:33N 22°18' E 114°09'2 1.7
2015-Jul-24 08:33N 22°20' E 114°09'3 2.9
2015-Jul-24 07:29N 22°17' E 114°06'3 2.9
2015-Jul-24 06:33N 22°17' E 114°09'0 0.0
2015-Jul-24 05:33N 22°17' E 114°09'0 0.0
2015-Jul-24 04:33N 22°17' E 114°09'0 0.0
2015-Jul-24 03:33N 22°17' E 114°09'0 0.0
2015-Jul-24 02:33N 22°17' E 114°09'7 6.4
2015-Jul-24 01:25N 22°16' E 114°02'7 4.0
2015-Jul-23 23:33N 22°17' E 114°10'5 5.1
2015-Jul-23 22:32N 22°18' E 114°04'  

Dump ship's entire track history